MPDA/DAV METAR and TAF weather

Enter ICAO airport designator
Station Type Date Time Source
MPDA METAR 2024/06/14 03:00 UTC NOAA

MPDA 140300Z VRB02KT 9999 TS SCT015CB SCT120 25/24 Q1011 RERA


Station Type Date Time Source
MPDA Decoded METAR 2024/06/14 03:00 UTC NOAA

David, Panama (MPDA) 08-24N 082-25W 26M
Jun 13, 2024 - 11:00 PM EDT / 2024.06.14 0300 UTC
Wind: Variable at 2 MPH (2 KT):0
Visibility: greater than 7 mile(s):0
Sky conditions: partly cloudy
Weather: thunder; Cumulonimbus clouds observed
Temperature: 77 F (25 C)
Dew Point: 75 F (24 C)
Relative Humidity: 94%
Pressure (altimeter): 29.85 in. Hg (1011 hPa)
ob: MPDA 140300Z VRB02KT 9999 TS SCT015CB SCT120 25/24 Q1011 RERA
cycle: 3

Station Type Date Time Source
MPDA TAF 2024/06/13 18:03 UTC NOAA